.
WxDataArchive / Data Records for 2007-07-31
2007-07-30 July 2007 2007-08-01

Data Records for Tuesday, 31 July 2007

Time	Temp	Chill	HIndex	Humid	Dewpt	 Wind 	HiWind	WindDir	Rain 	Barom 
-----	----	-----	------	-----	-----	------	------	-------	-----	----- 
00:00	66.1	66.1	66.1	83	60.8	0	0	---	0.00	29.979 
00:05	66.0	66.0	66.0	84	61.0	0	0	---	0.00	29.981 
00:10	66.0	66.0	66.0	84	61.0	0	0	---	0.00	29.980 
00:15	66.0	66.0	66.0	85	61.4	0	0	---	0.00	29.981 
00:20	65.8	65.8	65.8	85	61.2	0	0	---	0.00	29.982 
00:25	65.8	65.8	65.8	85	61.2	0	0	---	0.00	29.983 
00:30	65.8	65.8	65.8	85	61.2	0	0	---	0.00	29.985 
00:35	65.8	65.8	65.8	85	61.2	0	0	---	0.00	29.985 
00:40	66.0	66.0	66.0	84	61.0	0	0	---	0.00	29.986 
00:45	66.1	66.1	66.1	83	60.8	0	0	---	0.00	29.987 
00:50	66.0	66.0	66.0	83	60.7	0	0	---	0.00	29.987 
00:55	65.8	65.8	65.8	83	60.5	0	0	---	0.00	29.988 
01:00	65.6	65.6	65.6	84	60.6	0	0	---	0.00	29.991 
01:05	65.5	65.5	65.5	84	60.5	0	0	---	0.00	29.991 
01:10	65.3	65.3	65.3	84	60.3	0	0	---	0.00	29.991 
01:15	65.2	65.2	65.2	85	60.6	0	0	---	0.00	29.992 
01:20	65.0	65.0	65.0	85	60.4	0	0	---	0.00	29.990 
01:25	65.0	65.0	65.0	86	60.7	0	0	---	0.00	29.989 
01:30	65.0	65.0	65.0	86	60.7	0	0	---	0.00	29.988 
01:35	64.8	64.8	64.8	87	60.8	0	0	---	0.00	29.988 
01:40	64.8	64.8	64.8	87	60.8	0	0	---	0.00	29.987 
01:45	64.8	64.8	64.8	88	61.2	0	0	---	0.00	29.986 
01:50	64.7	64.7	64.7	88	61.1	0	0	---	0.00	29.986 
01:55	64.7	64.7	64.7	88	61.1	0	0	---	0.00	29.986 
02:00	64.7	64.7	64.7	89	61.4	0	0	---	0.00	29.986 
02:05	64.7	64.7	64.7	89	61.4	0	0	---	0.00	29.986 
02:10	64.7	64.7	64.7	89	61.4	0	0	---	0.00	29.986 
02:15	64.7	64.7	64.7	90	61.7	0	0	---	0.00	29.986 
02:20	64.5	64.5	64.5	90	61.5	0	0	---	0.00	29.985 
02:25	64.5	64.5	64.5	90	61.5	0	0	---	0.00	29.984 
02:30	64.3	64.3	64.3	90	61.3	0	0	---	0.00	29.984 
02:35	64.3	64.3	64.3	90	61.3	0	0	---	0.00	29.984 
02:40	64.2	64.2	64.2	91	61.5	0	0	---	0.00	29.985 
02:45	64.2	64.2	64.2	91	61.5	0	0	---	0.00	29.985 
02:50	64.2	64.2	64.2	92	61.8	0	0	---	0.00	29.985 
02:55	64.0	64.0	64.0	92	61.6	0	0	---	0.00	29.984 
03:00	64.0	64.0	64.0	92	61.6	0	0	---	0.00	29.984 
03:05	64.0	64.0	64.0	92	61.6	0	0	---	0.00	29.984 
03:10	63.9	63.9	63.9	92	61.5	0	0	---	0.00	29.984 
03:15	63.9	63.9	63.9	92	61.5	0	0	---	0.00	29.983 
03:20	63.7	63.7	63.7	92	61.3	0	0	---	0.00	29.983 
03:25	63.7	63.7	63.7	92	61.3	0	0	---	0.00	29.984 
03:30	63.7	63.7	63.7	92	61.3	0	0	---	0.00	29.984 
03:35	63.5	63.5	63.5	92	61.1	0	0	---	0.00	29.984 
03:40	63.5	63.5	63.5	93	61.4	0	0	---	0.00	29.984 
03:45	63.4	63.4	63.4	93	61.3	0	0	---	0.00	29.985 
03:50	63.4	63.4	63.4	93	61.3	0	0	---	0.00	29.984 
03:55	63.2	63.2	63.2	93	61.1	0	0	---	0.00	29.985 
04:00	63.2	63.2	63.2	93	61.1	0	0	---	0.00	29.985 
04:05	63.2	63.2	63.2	93	61.1	0	0	---	0.00	29.985 
04:10	63.1	63.1	63.1	93	61.0	0	0	---	0.00	29.984 
04:15	63.1	63.1	63.1	93	61.0	0	0	---	0.00	29.983 
04:20	63.1	63.1	63.1	94	61.3	0	0	---	0.00	29.983 
04:25	62.9	62.9	62.9	94	61.1	0	0	---	0.00	29.984 
04:30	62.9	62.9	62.9	94	61.1	0	0	---	0.00	29.985 
04:35	62.9	62.9	62.9	94	61.1	0	0	---	0.00	29.984 
04:40	62.9	62.9	62.9	94	61.1	0	0	---	0.00	29.985 
04:45	62.9	62.9	62.9	94	61.1	0	0	---	0.00	29.985 
04:50	62.7	62.7	62.7	94	60.9	0	0	---	0.00	29.985 
04:55	62.7	62.7	62.7	94	60.9	0	0	---	0.00	29.984 
05:00	62.7	62.7	62.7	94	60.9	0	0	---	0.00	29.985 
05:05	62.7	62.7	62.7	94	60.9	0	0	---	0.00	29.986 
05:10	62.6	62.6	62.6	94	60.8	0	0	---	0.00	29.987 
05:15	62.6	62.6	62.6	94	60.8	0	0	---	0.00	29.985 
05:20	62.6	62.6	62.6	94	60.8	0	0	---	0.00	29.986 
05:25	62.4	62.4	62.4	94	60.6	0	0	---	0.00	29.988 
05:30	62.4	62.4	62.4	94	60.6	0	0	---	0.00	29.989 
05:35	62.4	62.4	62.4	94	60.6	0	0	---	0.00	29.989 
05:40	62.4	62.4	62.4	95	60.9	0	0	---	0.00	29.990 
05:45	62.4	62.4	62.4	95	60.9	0	0	---	0.00	29.991 
05:50	62.4	62.4	62.4	95	60.9	0	0	---	0.00	29.992 
05:55	62.6	62.6	62.6	95	61.1	0	0	---	0.00	29.994 
06:00	62.7	62.7	62.7	95	61.2	0	0	---	0.00	29.992 
06:05	63.1	63.1	63.1	95	61.6	0	0	---	0.00	29.997 
06:10	63.4	63.4	63.4	95	61.9	0	0	---	0.00	29.999 
06:15	63.7	63.7	63.7	95	62.2	0	0	---	0.00	29.996 
06:20	64.0	64.0	64.0	95	62.5	0	0	---	0.00	29.996 
06:25	64.2	64.2	64.2	94	62.4	0	0	---	0.00	29.998 
06:30	64.5	64.5	64.5	94	62.7	0	0	---	0.00	30.000 
06:35	64.8	64.8	64.8	93	62.7	0	0	---	0.00	29.999 
06:40	65.3	65.3	65.3	92	62.9	0	0	---	0.00	29.999 
06:45	65.8	65.8	65.8	91	63.1	0	0	---	0.00	29.998 
06:50	66.3	66.3	66.3	89	63.0	0	0	---	0.00	29.998 
06:55	66.9	66.9	66.9	87	62.9	0	0	---	0.00	29.998 
07:00	67.6	67.6	67.6	84	62.6	0	0	---	0.00	30.000 
07:05	68.3	68.3	68.3	82	62.6	0	0	---	0.00	30.004 
07:10	68.9	68.9	68.9	78	61.7	0	0	---	0.00	30.003 
07:15	69.8	69.8	69.8	75	61.5	0	0	---	0.00	30.001 
07:20	70.6	70.6	70.6	74	61.9	0	1	90	0.00	30.002 
07:25	71.3	71.3	71.3	74	62.6	0	0	---	0.00	30.001 
07:30	72.0	72.0	72.0	73	62.9	0	1	90	0.00	30.000 
07:35	72.7	72.7	72.7	71	62.7	0	1	90	0.00	29.999 
07:40	73.2	73.2	73.2	69	62.4	0	1	90	0.00	29.999 
07:45	73.9	73.9	73.9	69	63.1	0	1	90	0.00	30.000 
07:50	74.4	74.4	74.4	67	62.7	0	1	90	0.00	30.000 
07:55	74.9	74.9	74.9	65	62.3	0	1	90	0.00	29.999 
08:00	75.3	75.3	77.2	66	63.1	0	1	90	0.00	29.999 
08:05	75.8	75.8	77.8	63	62.3	0	2	90	0.00	30.002 
08:10	76.1	76.1	78.0	62	62.1	0	2	90	0.00	30.002 
08:15	76.5	76.5	78.4	61	62.0	1	2	68	0.00	30.001 
08:20	76.8	76.8	78.6	61	62.3	0	2	68	0.00	30.003 
08:25	77.4	77.4	79.2	62	63.3	0	2	68	0.00	30.003 
08:30	77.7	77.7	79.4	60	62.7	0	2	68	0.00	30.002 
08:35	78.1	78.1	79.7	59	62.6	1	2	22	0.00	30.001 
08:40	78.3	78.3	79.9	58	62.3	0	2	0	0.00	30.000 
08:45	78.6	78.6	80.1	58	62.6	0	2	0	0.00	29.998 
08:50	78.8	78.8	80.5	60	63.7	0	1	0	0.00	29.997 
08:55	79.2	79.2	80.7	57	62.6	0	1	0	0.00	29.995 
09:00	79.6	79.6	80.9	55	62.0	0	1	0	0.00	29.992 
09:05	80.3	80.3	81.5	54	62.1	0	1	0	0.00	29.993 
09:10	80.7	80.7	82.0	55	63.0	0	1	0	0.00	29.996 
09:15	80.9	80.9	82.4	56	63.7	1	3	22	0.00	29.997 
09:20	81.4	81.4	82.7	54	63.1	0	1	22	0.00	29.995 
09:25	81.4	81.4	82.5	53	62.6	0	2	22	0.00	29.998 
09:30	81.6	81.6	83.1	55	63.8	0	3	22	0.00	29.997 
09:35	81.8	81.8	83.5	56	64.5	0	1	22	0.00	29.996 
09:40	82.4	82.4	84.2	56	65.1	0	1	22	0.00	29.997 
09:45	82.6	82.6	84.5	56	65.3	0	1	22	0.00	29.998 
09:50	82.6	82.6	84.7	57	65.8	0	2	22	0.00	29.998 
09:55	83.2	83.2	85.3	56	65.8	0	1	0	0.00	29.998 
10:00	83.4	83.4	85.2	54	65.0	1	2	0	0.00	29.999 
10:05	84.0	84.0	85.8	53	65.0	0	2	338	0.00	29.999 
10:10	84.1	84.1	85.0	49	62.8	0	2	338	0.00	30.000 
10:15	84.3	84.3	85.7	51	64.2	0	3	112	0.00	29.999 
10:20	85.1	85.1	86.9	51	64.9	1	5	90	0.00	30.000 
10:25	85.5	85.5	86.4	47	62.9	1	4	90	0.00	29.998 
10:30	85.9	85.9	87.2	48	63.9	1	2	90	0.00	29.997 
10:35	85.9	85.9	87.5	49	64.5	1	4	248	0.00	29.997 
10:40	86.3	86.3	87.2	46	63.0	0	2	90	0.00	29.998 
10:45	86.5	86.5	87.0	44	62.0	2	5	90	0.00	29.999 
10:50	86.3	86.3	88.0	49	64.9	2	4	112	0.00	30.000 
10:55	85.9	85.9	86.9	47	63.3	2	5	90	0.00	29.999 
11:00	85.9	85.9	86.9	47	63.3	0	3	90	0.00	30.002 
11:05	86.5	86.5	87.0	44	62.0	1	5	90	0.00	30.002 
11:10	87.2	87.2	88.8	47	64.5	1	3	90	0.00	30.003 
11:15	87.6	87.6	88.2	43	62.3	1	4	90	0.00	30.000 
11:20	87.0	87.0	87.9	45	63.1	2	4	90	0.00	30.002 
11:25	87.0	87.0	89.1	49	65.5	0	4	202	0.00	30.001 
11:30	87.2	87.2	90.4	52	67.4	0	2	90	0.00	30.001 
11:35	87.4	87.4	89.7	49	65.9	1	4	90	0.00	30.000 
11:40	87.6	87.6	89.1	46	64.2	2	5	90	0.00	29.999 
11:45	87.4	87.4	89.4	48	65.3	2	4	90	0.00	29.999 
11:50	87.6	87.6	89.4	47	64.8	0	4	90	0.00	29.998 
11:55	88.0	88.0	90.3	48	65.8	0	2	90	0.00	29.996 
12:00	88.0	88.0	89.4	45	64.0	2	5	90	0.00	29.997 
12:05	87.6	87.6	89.4	47	64.8	2	4	90	0.00	29.997 
12:10	87.6	87.6	88.8	45	63.6	1	5	90	0.00	29.997 
12:15	87.8	87.8	88.8	44	63.1	2	4	112	0.00	29.996 
12:20	87.8	87.8	88.8	44	63.1	1	4	112	0.00	29.995 
12:25	88.0	88.0	89.4	45	64.0	2	5	112	0.00	29.994 
12:30	88.0	88.0	89.7	46	64.6	1	4	90	0.00	29.994 
12:35	87.8	87.8	88.8	44	63.1	1	4	90	0.00	29.993 
12:40	88.2	88.2	90.0	46	64.8	1	2	112	0.00	29.991 
12:45	88.4	88.4	90.0	45	64.3	2	5	90	0.00	29.990 
12:50	88.4	88.4	89.3	43	63.0	2	5	112	0.00	29.990 
12:55	88.2	88.2	89.7	45	64.1	1	4	112	0.00	29.987 
13:00	88.4	88.4	88.2	39	60.3	2	5	90	0.00	29.986 
13:05	88.6	88.6	89.3	42	62.5	0	2	90	0.00	29.984 
13:10	88.8	88.8	89.3	41	62.0	1	3	90	0.00	29.980 
13:15	88.6	88.6	89.6	43	63.2	2	6	90	0.00	29.980 
13:20	88.4	88.4	88.4	40	61.0	1	4	68	0.00	29.980 
13:25	88.8	88.8	90.2	44	64.0	1	2	90	0.00	29.975 
13:30	88.8	88.8	89.6	42	62.7	2	4	292	0.00	29.974 
13:35	88.8	88.8	89.6	42	62.7	2	4	90	0.00	29.974 
13:40	88.8	88.8	89.3	41	62.0	2	6	90	0.00	29.976 
13:45	88.8	88.8	89.6	42	62.7	1	3	90	0.00	29.973 
13:50	89.3	89.3	91.7	46	65.8	1	2	90	0.00	29.970 
13:55	89.9	89.9	90.9	41	63.0	1	4	90	0.00	29.969 
14:00	89.9	89.9	91.9	44	65.0	2	4	90	0.00	29.968 
14:05	89.7	89.7	92.0	45	65.5	1	5	68	0.00	29.967 
14:10	89.9	89.9	90.5	40	62.3	1	2	68	0.00	29.966 
14:15	90.1	90.1	92.3	44	65.2	2	4	90	0.00	29.966 
14:20	89.9	89.9	92.3	45	65.7	1	4	112	0.00	29.966 
14:25	90.1	90.1	93.5	47	67.1	1	4	112	0.00	29.965 
14:30	89.9	89.9	91.2	42	63.7	1	4	112	0.00	29.965 
14:35	89.7	89.7	91.3	43	64.2	1	4	112	0.00	29.965 
14:40	89.7	89.7	90.9	42	63.5	1	3	112	0.00	29.964 
14:45	89.9	89.9	91.2	42	63.7	0	2	68	0.00	29.963 
14:50	90.5	90.5	92.9	44	65.6	0	1	338	0.00	29.963 
14:55	90.7	90.7	91.7	40	63.0	1	3	338	0.00	29.960 
15:00	90.7	90.7	92.5	42	64.4	0	1	90	0.00	29.960 
15:05	90.3	90.3	92.2	43	64.7	1	5	90	0.00	29.957 
15:10	90.1	90.1	91.5	42	63.9	1	5	112	0.00	29.958 
15:15	90.1	90.1	91.9	43	64.5	1	4	90	0.00	29.956 
15:20	89.9	89.9	90.9	41	63.0	2	4	112	0.00	29.956 
15:25	89.9	89.9	91.2	42	63.7	2	5	90	0.00	29.954 
15:30	89.9	89.9	91.9	44	65.0	2	4	112	0.00	29.954 
15:35	89.9	89.9	91.2	42	63.7	1	3	112	0.00	29.954 
15:40	89.7	89.7	90.9	42	63.5	1	3	112	0.00	29.953 
15:45	89.9	89.9	91.2	42	63.7	0	1	112	0.00	29.952 
15:50	90.3	90.3	91.5	41	63.4	0	2	112	0.00	29.951 
15:55	90.3	90.3	92.2	43	64.7	1	4	90	0.00	29.951 
16:00	90.3	90.3	91.5	41	63.4	1	4	270	0.00	29.948 
16:05	90.7	90.7	92.9	43	65.1	1	4	112	0.00	29.947 
16:10	90.5	90.5	92.5	43	64.9	2	4	90	0.00	29.944 
16:15	90.5	90.5	92.9	44	65.6	1	3	68	0.00	29.944 
16:20	90.3	90.3	93.0	45	66.0	0	2	68	0.00	29.943 
16:25	90.3	90.3	91.8	42	64.0	2	4	90	0.00	29.940 
16:30	90.1	90.1	91.9	43	64.5	1	4	90	0.00	29.940 
16:35	89.9	89.9	91.6	43	64.4	1	5	90	0.00	29.939 
16:40	89.0	89.0	89.9	42	62.9	1	4	90	0.00	29.938 
16:45	88.6	88.6	90.6	46	65.1	0	2	90	0.00	29.939 
16:50	88.2	88.2	90.0	46	64.8	0	1	90	0.00	29.940 
16:55	88.2	88.2	89.3	44	63.5	0	1	90	0.00	29.941 
17:00	88.6	88.6	90.6	46	65.1	0	1	90	0.00	29.940 
17:05	88.6	88.6	89.0	41	61.8	0	1	90	0.00	29.939 
17:10	88.8	88.8	89.9	43	63.4	0	1	90	0.00	29.939 
17:15	89.0	89.0	90.5	44	64.2	0	1	90	0.00	29.938 
17:20	89.0	89.0	90.9	45	64.9	0	2	90	0.00	29.939 
17:25	89.3	89.3	90.6	43	63.8	0	2	90	0.00	29.938 
17:30	89.3	89.3	90.6	43	63.8	0	1	90	0.00	29.937 
17:35	89.0	89.0	90.2	43	63.6	0	1	90	0.00	29.938 
17:40	88.6	88.6	89.0	41	61.8	0	1	90	0.00	29.938 
17:45	88.4	88.4	89.0	42	62.3	0	1	90	0.00	29.939 
17:50	88.2	88.2	88.7	42	62.2	0	1	90	0.00	29.939 
17:55	88.2	88.2	88.4	41	61.5	0	1	90	0.00	29.938 
18:00	88.0	88.0	88.2	41	61.3	0	1	90	0.00	29.939 
18:05	87.8	87.8	88.5	43	62.5	0	0	---	0.00	29.934 
18:10	87.8	87.8	88.2	42	61.8	0	1	90	0.00	29.934 
18:15	87.6	87.6	87.6	41	60.9	0	1	90	0.00	29.936 
18:20	88.0	88.0	87.9	40	60.6	0	1	90	0.00	29.936 
18:25	87.8	87.8	87.9	41	61.1	0	1	90	0.00	29.935 
18:30	87.6	87.6	87.6	41	60.9	0	1	90	0.00	29.935 
18:35	87.6	87.6	87.6	41	60.9	0	1	90	0.00	29.934 
18:40	87.4	87.4	87.6	42	61.5	0	0	---	0.00	29.934 
18:45	87.4	87.4	87.6	42	61.5	0	1	90	0.00	29.935 
18:50	87.2	87.2	87.4	42	61.3	0	1	90	0.00	29.935 
18:55	87.0	87.0	87.1	42	61.1	0	0	---	0.00	29.935 
19:00	86.7	86.7	87.0	43	61.5	0	0	---	0.00	29.936 
19:05	86.5	86.5	86.7	43	61.3	0	0	---	0.00	29.930 
19:10	86.3	86.3	87.0	45	62.4	0	0	---	0.00	29.932 
19:15	86.1	86.1	87.0	46	62.9	0	0	---	0.00	29.932 
19:20	85.7	85.7	86.9	48	63.7	0	0	---	0.00	29.933 
19:25	85.5	85.5	86.4	47	62.9	0	0	---	0.00	29.931 
19:30	84.9	84.9	86.1	49	63.6	0	0	---	0.00	29.930 
19:35	84.5	84.5	85.6	49	63.2	0	0	---	0.00	29.931 
19:40	84.1	84.1	85.3	50	63.4	0	0	---	0.00	29.933 
19:45	83.8	83.8	85.1	51	63.7	0	0	---	0.00	29.932 
19:50	83.2	83.2	84.3	51	63.2	0	0	---	0.00	29.932 
19:55	82.8	82.8	84.2	53	63.9	0	0	---	0.00	29.934 
20:00	82.4	82.4	83.9	54	64.1	0	0	---	0.00	29.935 
20:05	81.8	81.8	83.2	54	63.5	0	0	---	0.00	29.932 
20:10	81.2	81.2	82.5	54	62.9	0	0	---	0.00	29.935 
20:15	80.9	80.9	82.3	55	63.2	0	0	---	0.00	29.936 
20:20	80.5	80.5	81.8	55	62.8	0	0	---	0.00	29.936 
20:25	79.9	79.9	81.5	58	63.8	0	0	---	0.00	29.937 
20:30	79.6	79.6	81.3	59	64.0	0	0	---	0.00	29.936 
20:35	79.2	79.2	80.9	60	64.1	0	0	---	0.00	29.938 
20:40	78.8	78.8	80.5	61	64.2	0	0	---	0.00	29.940 
20:45	78.5	78.5	80.3	62	64.4	0	0	---	0.00	29.942 
20:50	78.1	78.1	79.9	64	64.9	0	0	---	0.00	29.943 
20:55	77.7	77.7	79.5	65	65.0	0	0	---	0.00	29.944 
21:00	77.6	77.6	79.4	65	64.9	0	0	---	0.00	29.945 
21:05	77.2	77.2	79.0	66	64.9	0	0	---	0.00	29.944 
21:10	76.8	76.8	78.6	67	65.0	0	0	---	0.00	29.945 
21:15	76.7	76.7	78.5	68	65.3	0	0	---	0.00	29.946 
21:20	76.5	76.5	78.2	69	65.6	0	0	---	0.00	29.946 
21:25	76.3	76.3	78.0	70	65.8	0	0	---	0.00	29.946 
21:30	76.1	76.1	77.8	70	65.6	0	0	---	0.00	29.948 
21:35	76.0	76.0	77.7	70	65.5	0	0	---	0.00	29.948 
21:40	75.8	75.8	77.4	70	65.3	0	0	---	0.00	29.947 
21:45	75.8	75.8	77.4	70	65.3	0	0	---	0.00	29.947 
21:50	75.6	75.6	77.1	72	65.9	0	0	---	0.00	29.947 
21:55	75.4	75.4	76.9	72	65.7	0	1	90	0.00	29.947 
22:00	75.3	75.3	76.8	72	65.6	0	0	---	0.00	29.947 
22:05	75.3	75.3	76.7	73	66.0	0	0	---	0.00	29.945 
22:10	75.3	75.3	76.7	73	66.0	0	0	---	0.00	29.945 
22:15	75.1	75.1	76.5	73	65.8	0	0	---	0.00	29.945 
22:20	74.9	74.9	74.9	73	65.6	0	0	---	0.00	29.945 
22:25	74.9	74.9	74.9	73	65.6	0	0	---	0.00	29.946 
22:30	74.7	74.7	74.7	74	65.8	0	0	---	0.00	29.945 
22:35	74.6	74.6	74.6	74	65.7	0	0	---	0.00	29.946 
22:40	74.6	74.6	74.6	74	65.7	0	0	---	0.00	29.947 
22:45	74.4	74.4	74.4	75	65.9	0	0	---	0.00	29.948 
22:50	74.2	74.2	74.2	75	65.8	0	0	---	0.00	29.947 
22:55	74.0	74.0	74.0	75	65.6	0	0	---	0.00	29.949 
23:00	73.9	73.9	73.9	76	65.8	0	0	---	0.00	29.947 
23:05	73.7	73.7	73.7	76	65.6	0	0	---	0.00	29.946 
23:10	73.5	73.5	73.5	77	65.8	0	0	---	0.00	29.945 
23:15	73.3	73.3	73.3	79	66.4	0	0	---	0.00	29.946 
23:20	73.2	73.2	73.2	80	66.6	0	0	---	0.00	29.948 
23:25	73.0	73.0	73.0	80	66.5	0	0	---	0.00	29.951 
23:30	72.8	72.8	72.8	80	66.3	0	0	---	0.00	29.951 
23:35	72.7	72.7	72.7	80	66.2	0	0	---	0.00	29.953 
23:40	72.5	72.5	72.5	81	66.3	0	0	---	0.00	29.954 
23:45	72.3	72.3	72.3	81	66.1	0	0	---	0.00	29.955 
23:50	72.1	72.1	72.1	82	66.3	0	0	---	0.00	29.956 
23:55	72.0	72.0	72.0	83	66.5	0	0	---	0.00	29.956 

CoCoRaHS
IN-AL-39
A2 Web Hosting
Creative Commons License
GoDaddy
Look for:

loaded 2017-10-17 00:13:12 • last modified 2010-11-18 10:43:29
Privacy PolicyDisclaimer
• wx.awcolley.com is powered by PmWiki v.2002016 •
• all content (unless otherwise noted) © 2017 A W Colley